FW7587 Weather Reports


Display with metric or nautical units.
time (UTC)temp
F
wind
direction
speed
MPH
gust
MPH
rain 1hr
in
rain 24hr
in
rain mn
in
humidity
%
barometer
mb
20210918200105 92 53 3.0 11.0 0.00 0.00 0.00 46 1016.3
20210918194629 94 18 2.0 5.0 0.00 0.00 0.00 45 1016.5
20210918193055 93 53 3.0 7.0 0.00 0.00 0.00 46 1016.9
20210918191630 92 5 0.0 7.0 0.00 0.00 0.00 48 1017.3
20210918190227 90 67 1.0 11.0 0.00 0.00 0.00 52 1017.7
20210918184633 91 14 1.0 4.0 0.00 0.00 0.00 52 1018.0
20210918183126 89 328 2.0 5.0 0.00 0.00 0.00 54 1018.4
20210918181725 89 192 2.0 7.0 0.00 0.00 0.00 57 1018.5
20210918180205 87 113 3.0 5.0 0.00 0.00 0.00 60 1018.8
20210918174546 86 65 1.0 2.0 0.00 0.00 0.00 59 1019.2
20210918173155 87 176 0.0 2.0 0.00 0.00 0.00 58 1019.3
20210918171619 88 224 1.0 3.0 0.00 0.00 0.00 58 1019.5
20210918170215 89 258 2.0 4.0 0.00 0.00 0.00 57 1019.5
20210918164604 87 245 1.0 5.0 0.00 0.00 0.00 60 1019.6
20210918163129 86 207 0.0 3.0 0.00 0.00 0.00 61 1019.6
20210918161550 86 120 0.0 2.0 0.00 0.00 0.00 61 1019.8
20210918160123 86 77 2.0 5.0 0.00 0.00 0.00 61 1019.7
20210918154723 86 98 1.0 5.0 0.00 0.00 0.00 62 1019.6
20210918153110 87 120 1.0 4.0 0.00 0.00 0.00 62 1019.5
20210918151635 85 157 2.0 5.0 0.00 0.00 0.00 66 1019.4
20210918150132 85 276 1.0 5.0 0.00 0.00 0.00 66 1019.4
20210918144609 84 238 2.0 5.0 0.00 0.00 0.00 66 1019.5
20210918143206 83 265 1.0 3.0 0.00 0.00 0.00 69 1019.4
20210918141736 81 323 1.0 3.0 0.00 0.00 0.00 74 1019.4
20210918140107 80 288 0.0 2.0 0.00 0.00 0.00 78 1019.4
20210918134633 77 0 0.0 2.0 0.00 0.00 0.00 83 1019.2
20210918133235 74 302 0.0 1.0 0.00 0.00 0.00 89 1019.0
20210918131603 72 0 0.0 0.0 0.00 0.00 0.00 92 1018.9
20210918130155 70 0 0.0 0.0 0.00 0.00 0.00 93 1018.9
20210918124621 69 0 0.0 0.0 0.00 0.00 0.00 94 1018.6
20210918123104 68 0 0.0 0.0 0.00 0.00 0.00 92 1018.5
20210918121607 69 0 0.0 0.0 0.00 0.00 0.00 93 1018.4
20210918120126 69 0 0.0 1.0 0.00 0.00 0.00 93 1018.2
20210918114557 69 0 0.0 0.0 0.00 0.00 0.00 92 1018.2
20210918113109 69 0 0.0 0.0 0.00 0.00 0.00 91 1018.1
20210918111649 70 0 0.0 0.0 0.00 0.00 0.00 92 1018.1
20210918110140 70 0 0.0 0.0 0.00 0.00 0.00 91 1017.9
20210918104611 70 0 0.0 0.0 0.00 0.00 0.00 90 1018.0
20210918103121 71 0 0.0 0.0 0.00 0.00 0.00 89 1018.0
20210918101611 71 0 0.0 1.0 0.00 0.00 0.00 89 1018.1
20210918100129 71 0 0.0 0.0 0.00 0.00 0.00 88 1018.1
20210918094653 71 119 0.0 1.0 0.00 0.00 0.00 88 1018.2
20210918093107 71 119 0.0 1.0 0.00 0.00 0.00 87 1018.1
20210918091633 72 0 0.0 1.0 0.00 0.00 0.00 86 1018.2
20210918090126 72 119 0.0 1.0 0.00 0.00 0.00 86 1018.1
20210918084622 72 119 0.0 1.0 0.00 0.00 0.00 85 1018.1
20210918083059 73 0 0.0 0.0 0.00 0.00 0.00 85 1018.0
20210918081733 73 0 0.0 0.0 0.00 0.00 0.00 85 1018.1
20210918080144 73 0 0.0 1.0 0.00 0.00 0.00 84 1017.9
20210918074611 74 0 0.0 0.0 0.00 0.00 0.00 82 1018.0
20210918073129 73 0 0.0 0.0 0.00 0.00 0.00 82 1017.9
20210918071613 74 0 0.0 0.0 0.00 0.00 0.00 81 1017.8
20210918070120 75 0 0.0 0.0 0.00 0.00 0.00 79 1017.7
20210918064606 75 119 0.0 1.0 0.00 0.00 0.00 78 1017.6
20210918063202 75 0 0.0 1.0 0.00 0.00 0.00 77 1017.7
20210918061605 76 0 0.0 0.0 0.00 0.00 0.00 76 1017.6
20210918060248 76 0 0.0 0.0 0.00 0.00 0.00 75 1017.6
20210918054616 77 0 0.0 0.0 0.00 0.00 0.00 73 1017.5
20210918053059 78 0 0.0 0.0 0.00 0.00 0.00 71 1017.4
20210918051552 79 0 0.0 1.0 0.00 0.00 0.00 69 1017.3
20210918050251 80 0 0.0 4.0 0.00 0.00 0.00 67 1017.2
20210918044707 81 87 1.0 4.0 0.00 0.00 0.00 65 1017.3
20210918043128 81 86 1.0 5.0 0.00 0.00 0.00 64 1017.1
20210918041610 81 94 0.0 3.0 0.00 0.00 0.00 63 1017.0
20210918040113 81 36 1.0 4.0 0.00 0.00 0.00 63 1016.8
20210918034637 82 74 1.0 4.0 0.00 0.00 0.00 63 1016.7
20210918033104 81 0 0.0 2.0 0.00 0.00 0.00 64 1016.6
20210918031631 80 0 0.0 1.0 0.00 0.00 0.00 64 1016.5
20210918030145 80 0 0.0 1.0 0.00 0.00 0.00 64 1016.7
20210918024628 81 0 0.0 1.0 0.00 0.00 0.00 63 1016.5
20210918023102 81 79 0.0 1.0 0.00 0.00 0.00 62 1016.3
20210918021554 82 0 0.0 1.0 0.00 0.00 0.00 62 1016.2
20210918020118 82 0 0.0 1.0 0.00 0.00 0.00 63 1015.9
20210918014630 81 0 0.0 1.0 0.00 0.00 0.00 64 1015.6
20210918013107 82 0 0.0 1.0 0.00 0.00 0.00 63 1015.5
20210918011619 83 0 0.0 1.0 0.00 0.00 0.00 62 1015.4
20210918010216 85 0 0.0 0.0 0.00 0.00 0.00 59 1015.2
20210918004630 86 0 0.0 1.0 0.00 0.00 0.00 56 1015.0
20210918003059 88 129 0.0 3.0 0.00 0.00 0.00 54 1014.9
20210918001606 89 117 1.0 6.0 0.00 0.00 0.00 52 1014.9
20210918000115 89 137 2.0 5.0 0.00 0.00 0.00 52 1014.8
20210917234602 90 82 2.0 10.0 0.00 0.00 0.00 51 1014.7
20210917233142 90 79 2.0 7.0 0.00 0.00 0.00 51 1014.6
20210917231618 90 80 2.0 7.0 0.00 0.00 0.00 52 1014.5
20210917230134 93 78 3.0 6.0 0.00 0.00 0.00 46 1014.4
20210917224643 95 65 2.0 7.0 0.00 0.00 0.00 43 1014.3
20210917223238 97 70 2.0 6.0 0.00 0.00 0.00 41 1014.2
20210917221633 97 309 1.0 4.0 0.00 0.00 0.00 41 1014.1
20210917220159 96 177 1.0 3.0 0.00 0.00 0.00 42 1014.1
20210917214554 95 113 1.0 4.0 0.00 0.00 0.00 44 1014.1
20210917213135 95 94 1.0 3.0 0.00 0.00 0.00 44 1014.2
20210917211633 92 178 1.0 5.0 0.00 0.00 0.00 48 1014.3
20210917210113 92 123 1.0 4.0 0.00 0.00 0.00 47 1014.3
20210917204636 93 76 2.0 6.0 0.00 0.00 0.00 45 1014.4
20210917203203 94 172 1.0 3.0 0.00 0.00 0.00 47 1014.5
20210917201609 94 110 1.0 4.0 0.00 0.00 0.00 47 1014.7